Airfield :
LOGIN :

Register | Disclaimer

   EN    FR    IT 

 










Legend :    VFR   Marginal VFR   IFR   Intensive IFR   Very Intensive IFR
Visi :
Ceiling :
>= 8 km
>= 3000ft
5 to 8 km
1000 to 3000 ft
1500m to 5 km
500 to 1000 ft
800 to 1500m
200 to 500 ft
< 800m
< 200 ft
Symbols :   Thunderstorms  Fog  Heavy snow  Heavy precipitations  Wind > 20 kt
SIGMETs :     Misc.  Thunderstorms  Icing  Turbulence  Mountain Waves  Volcanic Ashes







- Airport Elevation : 2001 ft
- IATA code : MAD


LEMD - Madrid

CURRENT METAR :
  • 250330Z 23013KT 210V270 9999 FEW022 08/06 Q1007 R88/29//95 NOSIG

EXPIRED METARs :
  • 250300Z 22013KT 190V250 9999 SCT022 09/06 Q1007 R88/29//95 NOSIG
  • 250230Z 22016KT 9999 SCT025 09/06 Q1007 R88/29//95 NOSIG
  • 250200Z 22016KT 190V250 9999 FEW015 BKN060 10/06 Q1006 R88/29//95 NOSIG
  • 250130Z 22015KT 190V250 9999 FEW015 BKN060 10/07 Q1006 R88/29//95 NOSIG
  • 250100Z 23017KT 9999 FEW015 BKN060 11/07 Q1006 R88/29//95 NOSIG

TAF TAF LEMD
Valid from the 25 at 00:00 until the 26 at 06:00 UTC


242300Z 2500/2606 22012KT 9999 BKN040 TX14/2515Z TN04/2606Z
TEMPO 2500/2606 22015G25KT
PROB40
TEMPO 2500/2504 4000 RA BKN014
PROB30
TEMPO 2508/2518 22020G32KT
PROB30
TEMPO 2512/2518 3000 SHRA SCT030TCU
No reported NOTAMs for that airfield.



MET'MAP, your aeronautical weather chart ! - Copyright ORBIFLY December 2007 - Disclaimer

ORBIFLY MET'MAP TEAM :

Programming & Development : Alexandra Zaïnal
Concept & Development : Baudouin d'Aumeries
Co-Development & Prog : Marc-Olivier Méhu
Technical & hardware support : Manuel Goepfert

Contact : metmap@orbifly.com




SOURCES & CREDITS :

   NOAA